Terminal Aerodrome Forecast
Issued by NWS Portland, OR

Home | Current Version | Previous Version | Text Only | Print | Product List | Glossary On
Versions: 1 2 3 4 5 6 7 8 9 10 11 12 13 14
000
FTUS46 KPQR 032322
TAFTTD
TAF
KTTD 032322Z 0400/0424 26007KT P6SM SCT080 SCT120 OVC250
     FM040300 29004KT P6SM VCSH SCT040 BKN070 OVC120
     FM041000 VRB03KT P6SM VCSH BKN025 BKN050 OVC120
     FM041400 VRB03KT P6SM OVC015
     FM041700 VRB03KT P6SM SCT020 OVC035
     FM042100 28006KT P6SM VCSH SCT035 BKN050=

USA.gov is the U.S. government's official web portal to all federal, state and local government web resources and services.